sensor_id;sensor_type;location;lat;lon;timestamp;P1;durP1;ratioP1;P2;durP2;ratioP2
76065;SDS011;64763;48.928;8.474;2023-02-23T00:01:53;36.50;;;17.02;;
76065;SDS011;64763;48.928;8.474;2023-02-23T00:04:20;35.53;;;16.80;;
76065;SDS011;64763;48.928;8.474;2023-02-23T00:06:47;36.10;;;16.40;;
76065;SDS011;64763;48.928;8.474;2023-02-23T00:09:12;35.50;;;16.00;;
76065;SDS011;64763;48.928;8.474;2023-02-23T00:11:47;36.25;;;17.30;;
76065;SDS011;64763;48.928;8.474;2023-02-23T00:14:16;39.30;;;17.58;;
76065;SDS011;64763;48.928;8.474;2023-02-23T00:16:42;33.50;;;16.23;;
76065;SDS011;64763;48.928;8.474;2023-02-23T00:19:09;31.52;;;15.70;;
76065;SDS011;64763;48.928;8.474;2023-02-23T00:21:35;29.08;;;16.17;;
76065;SDS011;64763;48.928;8.474;2023-02-23T00:24:03;35.47;;;17.55;;
76065;SDS011;64763;48.928;8.474;2023-02-23T00:26:30;38.63;;;19.13;;
76065;SDS011;64763;48.928;8.474;2023-02-23T00:28:59;35.50;;;17.48;;
76065;SDS011;64763;48.928;8.474;2023-02-23T00:31:41;37.55;;;17.48;;
76065;SDS011;64763;48.928;8.474;2023-02-23T00:34:09;39.58;;;17.38;;
76065;SDS011;64763;48.928;8.474;2023-02-23T00:36:35;34.85;;;15.95;;
76065;SDS011;64763;48.928;8.474;2023-02-23T00:39:01;38.97;;;19.05;;
76065;SDS011;64763;48.928;8.474;2023-02-23T00:41:42;38.92;;;17.92;;
76065;SDS011;64763;48.928;8.474;2023-02-23T00:44:07;36.65;;;17.25;;
76065;SDS011;64763;48.928;8.474;2023-02-23T00:46:33;35.53;;;17.17;;
76065;SDS011;64763;48.928;8.474;2023-02-23T00:48:58;38.25;;;16.90;;
76065;SDS011;64763;48.928;8.474;2023-02-23T00:51:24;39.25;;;18.10;;
76065;SDS011;64763;48.928;8.474;2023-02-23T00:53:57;35.45;;;16.98;;
76065;SDS011;64763;48.928;8.474;2023-02-23T00:56:23;35.20;;;16.92;;
76065;SDS011;64763;48.928;8.474;2023-02-23T00:58:49;36.15;;;17.02;;
76065;SDS011;64763;48.928;8.474;2023-02-23T01:01:14;35.75;;;17.27;;
76065;SDS011;64763;48.928;8.474;2023-02-23T01:03:40;37.75;;;18.15;;
76065;SDS011;64763;48.928;8.474;2023-02-23T01:06:08;35.67;;;16.45;;
76065;SDS011;64763;48.928;8.474;2023-02-23T01:08:37;35.10;;;18.50;;
76065;SDS011;64763;48.928;8.474;2023-02-23T01:11:07;34.80;;;17.60;;
76065;SDS011;64763;48.928;8.474;2023-02-23T01:13:34;33.60;;;17.15;;
76065;SDS011;64763;48.928;8.474;2023-02-23T01:16:03;37.67;;;18.17;;
76065;SDS011;64763;48.928;8.474;2023-02-23T01:18:30;35.60;;;16.88;;
76065;SDS011;64763;48.928;8.474;2023-02-23T01:20:58;36.90;;;17.38;;
76065;SDS011;64763;48.928;8.474;2023-02-23T01:23:24;34.58;;;17.25;;
76065;SDS011;64763;48.928;8.474;2023-02-23T01:25:49;38.88;;;17.45;;
76065;SDS011;64763;48.928;8.474;2023-02-23T01:28:15;38.13;;;18.83;;
76065;SDS011;64763;48.928;8.474;2023-02-23T01:30:40;39.20;;;19.23;;
76065;SDS011;64763;48.928;8.474;2023-02-23T01:33:05;34.10;;;18.42;;
76065;SDS011;64763;48.928;8.474;2023-02-23T01:35:31;42.20;;;20.80;;
76065;SDS011;64763;48.928;8.474;2023-02-23T01:37:59;43.33;;;19.35;;
76065;SDS011;64763;48.928;8.474;2023-02-23T01:40:25;39.80;;;19.52;;
76065;SDS011;64763;48.928;8.474;2023-02-23T01:42:58;37.17;;;18.50;;
76065;SDS011;64763;48.928;8.474;2023-02-23T01:45:32;34.53;;;17.33;;
76065;SDS011;64763;48.928;8.474;2023-02-23T01:50:58;38.08;;;18.48;;
76065;SDS011;64763;48.928;8.474;2023-02-23T01:53:24;40.25;;;19.30;;
76065;SDS011;64763;48.928;8.474;2023-02-23T01:55:55;42.35;;;20.30;;
76065;SDS011;64763;48.928;8.474;2023-02-23T01:58:22;40.33;;;19.33;;
76065;SDS011;64763;48.928;8.474;2023-02-23T02:00:49;39.30;;;19.10;;
76065;SDS011;64763;48.928;8.474;2023-02-23T02:03:42;44.35;;;20.10;;
76065;SDS011;64763;48.928;8.474;2023-02-23T02:06:05;40.75;;;18.98;;
76065;SDS011;64763;48.928;8.474;2023-02-23T02:08:34;39.40;;;19.17;;
76065;SDS011;64763;48.928;8.474;2023-02-23T02:11:07;40.55;;;18.48;;
76065;SDS011;64763;48.928;8.474;2023-02-23T02:13:49;39.85;;;19.20;;
76065;SDS011;64763;48.928;8.474;2023-02-23T02:16:40;37.05;;;18.20;;
76065;SDS011;64763;48.928;8.474;2023-02-23T02:25:25;38.05;;;18.17;;
76065;SDS011;64763;48.928;8.474;2023-02-23T02:42:16;39.67;;;19.67;;
76065;SDS011;64763;48.928;8.474;2023-02-23T02:47:28;39.10;;;19.38;;
76065;SDS011;64763;48.928;8.474;2023-02-23T02:50:03;38.20;;;18.48;;
76065;SDS011;64763;48.928;8.474;2023-02-23T02:53:04;39.65;;;18.42;;
76065;SDS011;64763;48.928;8.474;2023-02-23T02:55:32;32.05;;;16.92;;
76065;SDS011;64763;48.928;8.474;2023-02-23T02:58:01;35.92;;;17.92;;
76065;SDS011;64763;48.928;8.474;2023-02-23T03:00:41;35.45;;;17.30;;
76065;SDS011;64763;48.928;8.474;2023-02-23T03:03:31;37.13;;;17.80;;
76065;SDS011;64763;48.928;8.474;2023-02-23T03:06:16;35.33;;;18.98;;
76065;SDS011;64763;48.928;8.474;2023-02-23T03:09:09;43.78;;;19.02;;
76065;SDS011;64763;48.928;8.474;2023-02-23T03:12:03;36.25;;;18.23;;
76065;SDS011;64763;48.928;8.474;2023-02-23T03:14:54;39.60;;;18.92;;
76065;SDS011;64763;48.928;8.474;2023-02-23T03:17:44;37.50;;;18.38;;
76065;SDS011;64763;48.928;8.474;2023-02-23T03:29:01;41.78;;;18.73;;
76065;SDS011;64763;48.928;8.474;2023-02-23T03:31:52;32.60;;;17.17;;
76065;SDS011;64763;48.928;8.474;2023-02-23T03:34:43;36.63;;;18.95;;
76065;SDS011;64763;48.928;8.474;2023-02-23T03:37:31;37.78;;;19.52;;
76065;SDS011;64763;48.928;8.474;2023-02-23T03:40:25;36.78;;;18.95;;
76065;SDS011;64763;48.928;8.474;2023-02-23T03:43:13;35.38;;;17.70;;
76065;SDS011;64763;48.928;8.474;2023-02-23T03:46:02;34.92;;;18.00;;
76065;SDS011;64763;48.928;8.474;2023-02-23T03:48:47;34.35;;;17.45;;
76065;SDS011;64763;48.928;8.474;2023-02-23T03:51:33;37.88;;;18.13;;
76065;SDS011;64763;48.928;8.474;2023-02-23T03:54:30;38.50;;;17.98;;
76065;SDS011;64763;48.928;8.474;2023-02-23T03:57:17;34.33;;;18.05;;
76065;SDS011;64763;48.928;8.474;2023-02-23T04:00:04;40.45;;;18.05;;
76065;SDS011;64763;48.928;8.474;2023-02-23T04:02:52;34.10;;;17.80;;
76065;SDS011;64763;48.928;8.474;2023-02-23T04:05:38;42.80;;;19.13;;
76065;SDS011;64763;48.928;8.474;2023-02-23T04:08:24;38.95;;;17.60;;
76065;SDS011;64763;48.928;8.474;2023-02-23T04:11:17;37.95;;;18.90;;
76065;SDS011;64763;48.928;8.474;2023-02-23T04:16:29;32.65;;;16.15;;
76065;SDS011;64763;48.928;8.474;2023-02-23T04:18:56;39.72;;;17.63;;
76065;SDS011;64763;48.928;8.474;2023-02-23T04:21:21;34.03;;;17.27;;
76065;SDS011;64763;48.928;8.474;2023-02-23T04:23:46;41.00;;;18.38;;
76065;SDS011;64763;48.928;8.474;2023-02-23T04:26:12;37.22;;;18.33;;
76065;SDS011;64763;48.928;8.474;2023-02-23T04:28:37;33.17;;;17.77;;
76065;SDS011;64763;48.928;8.474;2023-02-23T04:31:03;34.47;;;16.77;;
76065;SDS011;64763;48.928;8.474;2023-02-23T04:33:28;34.95;;;18.55;;
76065;SDS011;64763;48.928;8.474;2023-02-23T04:35:54;35.30;;;18.17;;
76065;SDS011;64763;48.928;8.474;2023-02-23T04:38:20;33.47;;;17.55;;
76065;SDS011;64763;48.928;8.474;2023-02-23T04:40:45;34.90;;;17.73;;
76065;SDS011;64763;48.928;8.474;2023-02-23T04:43:11;33.20;;;17.05;;
76065;SDS011;64763;48.928;8.474;2023-02-23T04:45:37;34.13;;;16.77;;
76065;SDS011;64763;48.928;8.474;2023-02-23T04:48:02;30.90;;;15.55;;
76065;SDS011;64763;48.928;8.474;2023-02-23T04:50:27;29.33;;;16.02;;
76065;SDS011;64763;48.928;8.474;2023-02-23T04:52:53;30.98;;;16.63;;
76065;SDS011;64763;48.928;8.474;2023-02-23T04:55:20;28.80;;;15.20;;
76065;SDS011;64763;48.928;8.474;2023-02-23T04:57:46;33.53;;;14.63;;
76065;SDS011;64763;48.928;8.474;2023-02-23T05:00:12;26.25;;;14.05;;
76065;SDS011;64763;48.928;8.474;2023-02-23T05:02:37;26.23;;;14.30;;
76065;SDS011;64763;48.928;8.474;2023-02-23T05:05:03;21.70;;;11.68;;
76065;SDS011;64763;48.928;8.474;2023-02-23T05:07:28;25.88;;;12.90;;
76065;SDS011;64763;48.928;8.474;2023-02-23T05:09:54;23.65;;;12.45;;
76065;SDS011;64763;48.928;8.474;2023-02-23T05:12:19;22.30;;;12.20;;
76065;SDS011;64763;48.928;8.474;2023-02-23T05:14:44;21.80;;;11.63;;
76065;SDS011;64763;48.928;8.474;2023-02-23T05:17:10;25.58;;;10.80;;
76065;SDS011;64763;48.928;8.474;2023-02-23T05:19:35;20.02;;;11.10;;
76065;SDS011;64763;48.928;8.474;2023-02-23T05:22:02;25.67;;;11.70;;
76065;SDS011;64763;48.928;8.474;2023-02-23T05:24:27;29.90;;;13.80;;
76065;SDS011;64763;48.928;8.474;2023-02-23T05:26:52;23.05;;;12.25;;
76065;SDS011;64763;48.928;8.474;2023-02-23T05:29:18;22.70;;;12.02;;
76065;SDS011;64763;48.928;8.474;2023-02-23T05:31:43;21.80;;;12.32;;
76065;SDS011;64763;48.928;8.474;2023-02-23T05:34:10;19.23;;;10.32;;
76065;SDS011;64763;48.928;8.474;2023-02-23T05:36:35;21.77;;;9.43;;
76065;SDS011;64763;48.928;8.474;2023-02-23T05:39:01;16.02;;;8.20;;
76065;SDS011;64763;48.928;8.474;2023-02-23T05:41:26;16.30;;;8.63;;
76065;SDS011;64763;48.928;8.474;2023-02-23T05:43:53;16.67;;;8.63;;
76065;SDS011;64763;48.928;8.474;2023-02-23T05:46:19;15.45;;;8.60;;
76065;SDS011;64763;48.928;8.474;2023-02-23T05:48:48;17.27;;;9.15;;
76065;SDS011;64763;48.928;8.474;2023-02-23T05:51:14;15.48;;;8.32;;
76065;SDS011;64763;48.928;8.474;2023-02-23T05:53:40;18.05;;;10.00;;
76065;SDS011;64763;48.928;8.474;2023-02-23T05:56:06;20.75;;;10.55;;
76065;SDS011;64763;48.928;8.474;2023-02-23T05:58:32;20.50;;;10.30;;
76065;SDS011;64763;48.928;8.474;2023-02-23T06:00:57;18.13;;;10.27;;
76065;SDS011;64763;48.928;8.474;2023-02-23T06:03:22;17.08;;;8.85;;
76065;SDS011;64763;48.928;8.474;2023-02-23T06:05:49;17.27;;;8.65;;
76065;SDS011;64763;48.928;8.474;2023-02-23T06:08:18;12.77;;;7.63;;
76065;SDS011;64763;48.928;8.474;2023-02-23T06:10:43;13.35;;;7.20;;
76065;SDS011;64763;48.928;8.474;2023-02-23T06:13:09;12.27;;;6.82;;
76065;SDS011;64763;48.928;8.474;2023-02-23T06:15:35;12.27;;;6.82;;
76065;SDS011;64763;48.928;8.474;2023-02-23T06:18:01;14.95;;;6.85;;
76065;SDS011;64763;48.928;8.474;2023-02-23T06:20:26;11.20;;;6.22;;
76065;SDS011;64763;48.928;8.474;2023-02-23T06:22:52;14.00;;;7.35;;
76065;SDS011;64763;48.928;8.474;2023-02-23T06:25:17;11.00;;;6.82;;
76065;SDS011;64763;48.928;8.474;2023-02-23T06:27:42;12.00;;;6.68;;
76065;SDS011;64763;48.928;8.474;2023-02-23T06:30:10;12.40;;;6.80;;
76065;SDS011;64763;48.928;8.474;2023-02-23T06:32:36;14.68;;;7.70;;
76065;SDS011;64763;48.928;8.474;2023-02-23T06:35:02;12.80;;;6.57;;
76065;SDS011;64763;48.928;8.474;2023-02-23T06:37:29;12.70;;;7.07;;
76065;SDS011;64763;48.928;8.474;2023-02-23T06:39:54;11.77;;;6.35;;
76065;SDS011;64763;48.928;8.474;2023-02-23T06:42:19;12.20;;;6.45;;
76065;SDS011;64763;48.928;8.474;2023-02-23T06:44:45;11.82;;;7.03;;
76065;SDS011;64763;48.928;8.474;2023-02-23T06:47:10;12.10;;;6.43;;
76065;SDS011;64763;48.928;8.474;2023-02-23T06:49:35;13.23;;;6.15;;
76065;SDS011;64763;48.928;8.474;2023-02-23T06:52:01;16.23;;;6.47;;
76065;SDS011;64763;48.928;8.474;2023-02-23T06:54:26;13.23;;;5.80;;
76065;SDS011;64763;48.928;8.474;2023-02-23T06:56:52;11.77;;;6.07;;
76065;SDS011;64763;48.928;8.474;2023-02-23T06:59:19;13.85;;;6.63;;
76065;SDS011;64763;48.928;8.474;2023-02-23T07:01:45;9.98;;;6.03;;
76065;SDS011;64763;48.928;8.474;2023-02-23T07:04:10;13.18;;;6.40;;
76065;SDS011;64763;48.928;8.474;2023-02-23T07:06:36;11.80;;;5.97;;
76065;SDS011;64763;48.928;8.474;2023-02-23T07:09:02;10.55;;;6.55;;
76065;SDS011;64763;48.928;8.474;2023-02-23T07:11:28;11.88;;;7.10;;
76065;SDS011;64763;48.928;8.474;2023-02-23T07:13:56;12.43;;;6.82;;
76065;SDS011;64763;48.928;8.474;2023-02-23T07:16:22;11.13;;;6.10;;
76065;SDS011;64763;48.928;8.474;2023-02-23T07:18:48;12.45;;;6.60;;
76065;SDS011;64763;48.928;8.474;2023-02-23T07:21:13;12.90;;;6.35;;
76065;SDS011;64763;48.928;8.474;2023-02-23T07:23:38;12.98;;;7.82;;
76065;SDS011;64763;48.928;8.474;2023-02-23T07:26:04;14.02;;;6.38;;
76065;SDS011;64763;48.928;8.474;2023-02-23T07:28:29;15.52;;;7.70;;
76065;SDS011;64763;48.928;8.474;2023-02-23T07:30:55;11.43;;;6.85;;
76065;SDS011;64763;48.928;8.474;2023-02-23T07:33:21;13.30;;;8.27;;
76065;SDS011;64763;48.928;8.474;2023-02-23T07:35:47;17.02;;;7.10;;
76065;SDS011;64763;48.928;8.474;2023-02-23T07:38:13;11.93;;;7.60;;
76065;SDS011;64763;48.928;8.474;2023-02-23T07:40:38;14.25;;;7.13;;
76065;SDS011;64763;48.928;8.474;2023-02-23T07:43:04;13.73;;;8.25;;
76065;SDS011;64763;48.928;8.474;2023-02-23T07:45:29;14.52;;;8.32;;
76065;SDS011;64763;48.928;8.474;2023-02-23T07:47:54;18.85;;;10.02;;
76065;SDS011;64763;48.928;8.474;2023-02-23T07:50:20;16.67;;;9.73;;
76065;SDS011;64763;48.928;8.474;2023-02-23T07:52:45;18.25;;;9.88;;
76065;SDS011;64763;48.928;8.474;2023-02-23T07:55:11;15.68;;;9.82;;
76065;SDS011;64763;48.928;8.474;2023-02-23T07:57:37;18.33;;;10.10;;
76065;SDS011;64763;48.928;8.474;2023-02-23T08:00:03;19.75;;;10.05;;
76065;SDS011;64763;48.928;8.474;2023-02-23T08:02:29;19.90;;;9.77;;
76065;SDS011;64763;48.928;8.474;2023-02-23T08:04:56;15.18;;;8.73;;
76065;SDS011;64763;48.928;8.474;2023-02-23T08:07:21;15.95;;;8.90;;
76065;SDS011;64763;48.928;8.474;2023-02-23T08:09:47;16.20;;;8.63;;
76065;SDS011;64763;48.928;8.474;2023-02-23T08:12:13;14.23;;;7.97;;
76065;SDS011;64763;48.928;8.474;2023-02-23T08:14:39;15.48;;;7.55;;
76065;SDS011;64763;48.928;8.474;2023-02-23T08:17:05;14.55;;;7.63;;
76065;SDS011;64763;48.928;8.474;2023-02-23T08:19:30;14.63;;;7.40;;
76065;SDS011;64763;48.928;8.474;2023-02-23T08:21:56;14.25;;;8.93;;
76065;SDS011;64763;48.928;8.474;2023-02-23T08:24:21;14.68;;;8.15;;
76065;SDS011;64763;48.928;8.474;2023-02-23T08:26:46;14.18;;;7.63;;
76065;SDS011;64763;48.928;8.474;2023-02-23T08:29:13;15.55;;;6.93;;
76065;SDS011;64763;48.928;8.474;2023-02-23T08:31:39;14.35;;;7.03;;
76065;SDS011;64763;48.928;8.474;2023-02-23T08:34:04;12.50;;;7.60;;
76065;SDS011;64763;48.928;8.474;2023-02-23T08:36:29;11.07;;;6.82;;
76065;SDS011;64763;48.928;8.474;2023-02-23T08:38:55;12.77;;;7.70;;
76065;SDS011;64763;48.928;8.474;2023-02-23T08:41:21;14.27;;;8.10;;
76065;SDS011;64763;48.928;8.474;2023-02-23T08:43:47;15.35;;;8.00;;
76065;SDS011;64763;48.928;8.474;2023-02-23T08:46:13;15.07;;;8.40;;
76065;SDS011;64763;48.928;8.474;2023-02-23T08:48:38;15.68;;;8.73;;
76065;SDS011;64763;48.928;8.474;2023-02-23T08:51:04;18.13;;;8.23;;
76065;SDS011;64763;48.928;8.474;2023-02-23T08:53:31;16.00;;;7.80;;
76065;SDS011;64763;48.928;8.474;2023-02-23T08:56:00;13.25;;;7.47;;
76065;SDS011;64763;48.928;8.474;2023-02-23T08:58:27;14.73;;;7.40;;
76065;SDS011;64763;48.928;8.474;2023-02-23T09:00:54;12.32;;;7.63;;
76065;SDS011;64763;48.928;8.474;2023-02-23T09:03:20;15.07;;;8.15;;
76065;SDS011;64763;48.928;8.474;2023-02-23T09:05:46;13.43;;;7.35;;
76065;SDS011;64763;48.928;8.474;2023-02-23T09:08:11;11.13;;;6.68;;
76065;SDS011;64763;48.928;8.474;2023-02-23T09:10:37;12.07;;;7.22;;
76065;SDS011;64763;48.928;8.474;2023-02-23T09:13:03;16.17;;;7.00;;
76065;SDS011;64763;48.928;8.474;2023-02-23T09:15:29;16.27;;;7.88;;
76065;SDS011;64763;48.928;8.474;2023-02-23T09:17:58;13.38;;;7.65;;
76065;SDS011;64763;48.928;8.474;2023-02-23T09:20:24;13.18;;;7.53;;
76065;SDS011;64763;48.928;8.474;2023-02-23T09:22:51;12.50;;;7.45;;
76065;SDS011;64763;48.928;8.474;2023-02-23T09:25:17;15.38;;;6.95;;
76065;SDS011;64763;48.928;8.474;2023-02-23T09:27:46;13.43;;;6.55;;
76065;SDS011;64763;48.928;8.474;2023-02-23T09:30:12;11.68;;;6.78;;
76065;SDS011;64763;48.928;8.474;2023-02-23T09:32:42;16.70;;;7.05;;
76065;SDS011;64763;48.928;8.474;2023-02-23T09:35:09;13.88;;;7.78;;
76065;SDS011;64763;48.928;8.474;2023-02-23T09:37:34;13.95;;;7.28;;
76065;SDS011;64763;48.928;8.474;2023-02-23T09:39:59;12.25;;;6.95;;
76065;SDS011;64763;48.928;8.474;2023-02-23T09:42:36;14.27;;;7.00;;
76065;SDS011;64763;48.928;8.474;2023-02-23T09:50:31;12.80;;;7.05;;
76065;SDS011;64763;48.928;8.474;2023-02-23T09:55:42;14.80;;;6.93;;
76065;SDS011;64763;48.928;8.474;2023-02-23T09:58:13;14.57;;;6.88;;
76065;SDS011;64763;48.928;8.474;2023-02-23T10:00:44;13.25;;;6.53;;
76065;SDS011;64763;48.928;8.474;2023-02-23T10:05:46;12.07;;;6.63;;
76065;SDS011;64763;48.928;8.474;2023-02-23T10:08:28;13.30;;;7.47;;
76065;SDS011;64763;48.928;8.474;2023-02-23T10:17:02;17.38;;;9.32;;
76065;SDS011;64763;48.928;8.474;2023-02-23T10:19:49;14.85;;;8.68;;
76065;SDS011;64763;48.928;8.474;2023-02-23T10:22:35;17.27;;;9.18;;
76065;SDS011;64763;48.928;8.474;2023-02-23T10:25:06;16.08;;;9.00;;
76065;SDS011;64763;48.928;8.474;2023-02-23T10:27:39;15.45;;;7.78;;
76065;SDS011;64763;48.928;8.474;2023-02-23T10:30:15;17.73;;;8.85;;
76065;SDS011;64763;48.928;8.474;2023-02-23T10:35:11;14.02;;;8.60;;
76065;SDS011;64763;48.928;8.474;2023-02-23T10:37:41;14.90;;;8.23;;
76065;SDS011;64763;48.928;8.474;2023-02-23T10:40:07;15.00;;;8.38;;
76065;SDS011;64763;48.928;8.474;2023-02-23T10:42:38;15.38;;;6.90;;
76065;SDS011;64763;48.928;8.474;2023-02-23T10:45:05;16.70;;;8.05;;
76065;SDS011;64763;48.928;8.474;2023-02-23T10:47:42;13.57;;;7.90;;
76065;SDS011;64763;48.928;8.474;2023-02-23T10:50:08;13.60;;;8.43;;
76065;SDS011;64763;48.928;8.474;2023-02-23T10:52:39;16.00;;;7.93;;
76065;SDS011;64763;48.928;8.474;2023-02-23T10:55:06;14.25;;;7.95;;
76065;SDS011;64763;48.928;8.474;2023-02-23T10:57:33;15.52;;;8.65;;
76065;SDS011;64763;48.928;8.474;2023-02-23T11:02:44;17.45;;;9.45;;
76065;SDS011;64763;48.928;8.474;2023-02-23T11:05:27;17.70;;;9.25;;
76065;SDS011;64763;48.928;8.474;2023-02-23T11:08:20;16.83;;;8.57;;
76065;SDS011;64763;48.928;8.474;2023-02-23T11:11:32;17.30;;;10.32;;
76065;SDS011;64763;48.928;8.474;2023-02-23T11:13:39;14.98;;;8.90;;
76065;SDS011;64763;48.928;8.474;2023-02-23T11:16:11;16.98;;;9.50;;
76065;SDS011;64763;48.928;8.474;2023-02-23T11:18:39;15.07;;;9.18;;
76065;SDS011;64763;48.928;8.474;2023-02-23T11:21:10;15.00;;;8.52;;
76065;SDS011;64763;48.928;8.474;2023-02-23T11:23:36;15.05;;;8.65;;
76065;SDS011;64763;48.928;8.474;2023-02-23T11:26:05;16.52;;;9.18;;
76065;SDS011;64763;48.928;8.474;2023-02-23T11:28:53;17.15;;;9.30;;
76065;SDS011;64763;48.928;8.474;2023-02-23T11:31:22;16.80;;;9.05;;
76065;SDS011;64763;48.928;8.474;2023-02-23T11:33:54;14.35;;;9.10;;
76065;SDS011;64763;48.928;8.474;2023-02-23T11:39:03;17.25;;;8.40;;
76065;SDS011;64763;48.928;8.474;2023-02-23T11:41:29;15.65;;;8.20;;
76065;SDS011;64763;48.928;8.474;2023-02-23T11:43:57;16.58;;;9.18;;
76065;SDS011;64763;48.928;8.474;2023-02-23T11:46:24;15.88;;;9.13;;
76065;SDS011;64763;48.928;8.474;2023-02-23T11:48:51;16.35;;;8.77;;
76065;SDS011;64763;48.928;8.474;2023-02-23T11:51:22;17.50;;;8.98;;
76065;SDS011;64763;48.928;8.474;2023-02-23T11:53:49;17.45;;;8.57;;
76065;SDS011;64763;48.928;8.474;2023-02-23T11:56:18;17.30;;;8.55;;
76065;SDS011;64763;48.928;8.474;2023-02-23T11:58:47;13.93;;;8.35;;
76065;SDS011;64763;48.928;8.474;2023-02-23T12:01:20;16.48;;;8.70;;
76065;SDS011;64763;48.928;8.474;2023-02-23T12:04:00;17.30;;;8.43;;
76065;SDS011;64763;48.928;8.474;2023-02-23T12:11:52;16.45;;;8.75;;
76065;SDS011;64763;48.928;8.474;2023-02-23T12:14:24;14.65;;;8.95;;
76065;SDS011;64763;48.928;8.474;2023-02-23T12:16:55;18.90;;;10.15;;
76065;SDS011;64763;48.928;8.474;2023-02-23T12:19:25;18.98;;;9.77;;
76065;SDS011;64763;48.928;8.474;2023-02-23T12:22:06;16.67;;;9.00;;
76065;SDS011;64763;48.928;8.474;2023-02-23T12:30:54;15.88;;;8.50;;
76065;SDS011;64763;48.928;8.474;2023-02-23T12:33:03;13.98;;;7.78;;
76065;SDS011;64763;48.928;8.474;2023-02-23T12:38:19;18.75;;;8.52;;
76065;SDS011;64763;48.928;8.474;2023-02-23T12:40:52;14.55;;;8.40;;
76065;SDS011;64763;48.928;8.474;2023-02-23T12:43:24;14.98;;;7.80;;
76065;SDS011;64763;48.928;8.474;2023-02-23T12:45:55;15.95;;;8.43;;
76065;SDS011;64763;48.928;8.474;2023-02-23T12:53:45;15.27;;;9.38;;
76065;SDS011;64763;48.928;8.474;2023-02-23T12:59:39;14.70;;;7.97;;
76065;SDS011;64763;48.928;8.474;2023-02-23T13:05:25;12.48;;;7.93;;
76065;SDS011;64763;48.928;8.474;2023-02-23T13:07:58;13.30;;;7.45;;
76065;SDS011;64763;48.928;8.474;2023-02-23T13:19:19;14.60;;;8.55;;
76065;SDS011;64763;48.928;8.474;2023-02-23T13:24:41;11.98;;;6.43;;
76065;SDS011;64763;48.928;8.474;2023-02-23T13:27:29;16.65;;;8.40;;
76065;SDS011;64763;48.928;8.474;2023-02-23T13:29:58;11.32;;;6.88;;
76065;SDS011;64763;48.928;8.474;2023-02-23T13:32:25;15.43;;;7.78;;
76065;SDS011;64763;48.928;8.474;2023-02-23T13:34:57;16.60;;;8.05;;
76065;SDS011;64763;48.928;8.474;2023-02-23T13:40:16;15.52;;;7.35;;
76065;SDS011;64763;48.928;8.474;2023-02-23T13:42:52;16.38;;;8.02;;
76065;SDS011;64763;48.928;8.474;2023-02-23T13:54:00;18.48;;;9.30;;
76065;SDS011;64763;48.928;8.474;2023-02-23T13:56:33;17.60;;;9.40;;
76065;SDS011;64763;48.928;8.474;2023-02-23T13:59:14;15.48;;;8.57;;
76065;SDS011;64763;48.928;8.474;2023-02-23T14:01:45;17.77;;;8.68;;
76065;SDS011;64763;48.928;8.474;2023-02-23T14:04:14;17.98;;;7.82;;
76065;SDS011;64763;48.928;8.474;2023-02-23T14:07:03;14.50;;;7.72;;
76065;SDS011;64763;48.928;8.474;2023-02-23T14:09:46;14.85;;;7.78;;
76065;SDS011;64763;48.928;8.474;2023-02-23T14:15:26;16.65;;;7.95;;
76065;SDS011;64763;48.928;8.474;2023-02-23T14:18:27;15.57;;;7.90;;
76065;SDS011;64763;48.928;8.474;2023-02-23T14:20:51;16.33;;;8.02;;
76065;SDS011;64763;48.928;8.474;2023-02-23T14:25:44;19.00;;;8.47;;
76065;SDS011;64763;48.928;8.474;2023-02-23T14:28:22;16.45;;;8.50;;
76065;SDS011;64763;48.928;8.474;2023-02-23T14:36:25;15.63;;;7.82;;
76065;SDS011;64763;48.928;8.474;2023-02-23T14:41:28;14.07;;;7.85;;
76065;SDS011;64763;48.928;8.474;2023-02-23T14:43:58;16.63;;;7.05;;
76065;SDS011;64763;48.928;8.474;2023-02-23T14:46:24;15.85;;;9.52;;
76065;SDS011;64763;48.928;8.474;2023-02-23T14:49:24;15.02;;;8.48;;
76065;SDS011;64763;48.928;8.474;2023-02-23T14:51:44;17.15;;;8.13;;
76065;SDS011;64763;48.928;8.474;2023-02-23T14:54:20;17.27;;;7.97;;
76065;SDS011;64763;48.928;8.474;2023-02-23T14:56:52;10.93;;;6.60;;
76065;SDS011;64763;48.928;8.474;2023-02-23T14:59:21;14.88;;;7.78;;
76065;SDS011;64763;48.928;8.474;2023-02-23T15:01:49;17.50;;;7.50;;
76065;SDS011;64763;48.928;8.474;2023-02-23T15:04:16;15.80;;;8.18;;
76065;SDS011;64763;48.928;8.474;2023-02-23T15:06:47;15.05;;;7.70;;
76065;SDS011;64763;48.928;8.474;2023-02-23T15:09:14;15.23;;;7.90;;
76065;SDS011;64763;48.928;8.474;2023-02-23T15:11:42;15.55;;;8.23;;
76065;SDS011;64763;48.928;8.474;2023-02-23T15:14:11;14.43;;;8.65;;
76065;SDS011;64763;48.928;8.474;2023-02-23T15:16:39;16.23;;;8.18;;
76065;SDS011;64763;48.928;8.474;2023-02-23T15:19:04;16.27;;;9.05;;
76065;SDS011;64763;48.928;8.474;2023-02-23T15:21:31;13.50;;;7.93;;
76065;SDS011;64763;48.928;8.474;2023-02-23T15:23:58;16.23;;;8.38;;
76065;SDS011;64763;48.928;8.474;2023-02-23T15:26:35;13.38;;;7.78;;
76065;SDS011;64763;48.928;8.474;2023-02-23T15:29:12;15.07;;;8.15;;
76065;SDS011;64763;48.928;8.474;2023-02-23T15:31:38;14.00;;;7.40;;
76065;SDS011;64763;48.928;8.474;2023-02-23T15:34:13;14.88;;;7.55;;
76065;SDS011;64763;48.928;8.474;2023-02-23T15:36:44;11.40;;;7.03;;
76065;SDS011;64763;48.928;8.474;2023-02-23T15:39:16;13.10;;;7.20;;
76065;SDS011;64763;48.928;8.474;2023-02-23T15:41:44;12.10;;;7.00;;
76065;SDS011;64763;48.928;8.474;2023-02-23T15:44:24;13.48;;;6.60;;
76065;SDS011;64763;48.928;8.474;2023-02-23T15:47:00;14.95;;;6.65;;
76065;SDS011;64763;48.928;8.474;2023-02-23T15:49:28;12.55;;;7.05;;
76065;SDS011;64763;48.928;8.474;2023-02-23T15:51:56;13.70;;;6.68;;
76065;SDS011;64763;48.928;8.474;2023-02-23T15:57:19;12.45;;;6.07;;
76065;SDS011;64763;48.928;8.474;2023-02-23T15:59:47;12.27;;;6.05;;
76065;SDS011;64763;48.928;8.474;2023-02-23T16:02:14;13.77;;;6.55;;
76065;SDS011;64763;48.928;8.474;2023-02-23T16:04:45;12.93;;;6.38;;
76065;SDS011;64763;48.928;8.474;2023-02-23T16:07:21;12.50;;;6.25;;
76065;SDS011;64763;48.928;8.474;2023-02-23T16:09:51;11.05;;;5.72;;
76065;SDS011;64763;48.928;8.474;2023-02-23T16:12:30;13.27;;;6.45;;
76065;SDS011;64763;48.928;8.474;2023-02-23T16:14:59;10.43;;;6.20;;
76065;SDS011;64763;48.928;8.474;2023-02-23T16:17:27;14.93;;;6.22;;
76065;SDS011;64763;48.928;8.474;2023-02-23T16:20:02;14.57;;;6.30;;
76065;SDS011;64763;48.928;8.474;2023-02-23T16:25:02;12.93;;;6.07;;
76065;SDS011;64763;48.928;8.474;2023-02-23T16:27:29;14.73;;;6.88;;
76065;SDS011;64763;48.928;8.474;2023-02-23T16:29:56;13.00;;;7.05;;
76065;SDS011;64763;48.928;8.474;2023-02-23T16:32:24;11.93;;;6.72;;
76065;SDS011;64763;48.928;8.474;2023-02-23T16:35:02;15.43;;;7.32;;
76065;SDS011;64763;48.928;8.474;2023-02-23T16:37:47;13.65;;;7.30;;
76065;SDS011;64763;48.928;8.474;2023-02-23T16:40:14;12.63;;;8.40;;
76065;SDS011;64763;48.928;8.474;2023-02-23T16:42:39;14.73;;;7.85;;
76065;SDS011;64763;48.928;8.474;2023-02-23T16:45:04;16.65;;;8.23;;
76065;SDS011;64763;48.928;8.474;2023-02-23T16:47:34;11.93;;;6.68;;
76065;SDS011;64763;48.928;8.474;2023-02-23T16:50:10;13.07;;;6.70;;
76065;SDS011;64763;48.928;8.474;2023-02-23T16:52:41;12.77;;;7.55;;
76065;SDS011;64763;48.928;8.474;2023-02-23T16:55:11;13.68;;;7.30;;
76065;SDS011;64763;48.928;8.474;2023-02-23T16:57:39;14.13;;;8.25;;
76065;SDS011;64763;48.928;8.474;2023-02-23T17:00:05;13.18;;;6.97;;